Brunswick Executive Airport (KBXM)
Brunswick, ME
Field Elevation: 72
Lat: 43°53.54N  Long: 69°56.33W
CTAF/Unicom Freq: 122.7250
   
    
Weather Advisories
2018-04-24   00:30 Z
Altimeter 30.42" Hg
Wind 250° @ 11 KT
Gusts 15 KT
Visibility 10 SM
Ceiling CLR
Temperature 8° C (46° F)
Dewpoint -2° C (28° F)
Relative Humidity 50%
Density Altitude --
Condensation Altitude 4,800 feet
Wind Chill: 5° C (41° F)
Wind and Runways
Indicated Runway = 19
Headwind = 6 kt
Crosswind = 10 kt
History
 
 
 
More Info
All DigiWx sites map
 
NOAA Forecast
 
Airport IQ 5010
(OCNJ) Ocean City, NJ
(39N) Princeton, NJ
 
about DigiWx
 
FAA Disclaimer: The data displayed is for advisory purposes only and is not to be used for flight planning or operations. For official data, please call (not available) to hear the current automated AWOS voice message.
  METAR KBXM 240030Z AUTO 25011G15KT 10 SM CLR 08/M02 A3042